Terminal Aerodrome Forecast
Issued by NWS

Home | Current Version | Previous Version | Text Only | Print | Product List | Glossary On
Versions: 1 2 3 4 5 6 7 8 9 10 11 12 13 14 15 16 17 18
000
FTUS43 KGRR 272352
TAFAZO
TAF
KAZO 272352Z 2800/2824 17007KT P6SM OVC100
      TEMPO 2800/2803 4SM -SHRA BR OVC040
     FM280300 17008KT P6SM VCSH BKN080
     FM281300 20010G20KT P6SM VCSH BKN060
     FM281800 20011G21KT P6SM VCTS BKN050CB=

USA.gov is the U.S. government's official web portal to all federal, state and local government web resources and services.